Current | Forecast
Updated: 1:30 AM EEST on June 24, 2018
Observed at Odessa, Ukraine
Temperature 12°C
Humidity 82%
Dew Point 9°C
Wind NW at 18 km/h
Pressure 1015 hPa (Rising)
Conditions Clear
Visibility -
UV N/A
Clouds
Yesterday's Maximum 24°C
Yesterday's Minimum 14°C approx.
Yesterday's Cooling Degree Days 1 approx.
Sunrise5:01 AM EEST
Sunset8:53 PM EEST
Moon Rise5:11 PM EEST
Moon Set2:53 AM EEST
Moon PhaseMoon Phase
Waxing Gibbous
Raw METARMETAR UKOO 232230Z 31005MPS CAVOK 12/09 Q1015 R34/090060 NOSIG


Monday
. High: 60° F.
Tuesday
. High: 66° F.
Wednesday
. High: 66° F.
Thursday
. High: 71° F.
Friday
. High: 60° F.
Saturday
. High: 55° F.
Sunday
. High: 69° F.
Monday
. High: 68° F.

Units: English | Metric

Find the Weather for any City, State or Zipcode, or Country:

U.S. State List | Severe Weather | Tropical Storms | Ski Conditions
United States | Canada | Central America | South America | Asia | Europe | Australia | Africa | Islands

Weather Underground

© Copyright 2018
The Weather Company, LLC